Terminal Aerodrome Forecast
Issued by NWS

Current Version | Previous Version | Text Only | Print | Product List | Glossary Off
Versions: 1 2 3 4 5 6 7 8 9 10 11 12 13 14 15 16 17 18 19 20 21 22

000
FTUS41 KRLX 232335
TAFCKB
TAF
KCKB 232335Z 2400/2424 02004KT P6SM FEW035
     FM240800 00000KT 4SM BR FEW040
     FM240900 00000KT 2SM BR FEW002
     FM241200 00000KT 5SM BR SKC
     FM241300 VRB03KT P6SM SKC=

USA.gov is the U.S. government's official web portal to all federal, state and local government web resources and services.